KRBL/RBL METAR and TAF weather

Enter ICAO airport designator
Station Type Date Time Source
KRBL METAR 2021/03/08 14:54 UTC NOAA

KRBL 081454Z AUTO 17015KT 10SM FEW037 08/04 A3003 RMK AO2 SLP167 T00780039 53019


Station Type Date Time Source
KRBL Decoded METAR 2021/03/08 14:54 UTC NOAA

RED BLUFF MUNICIPAL AIRPORT, CA, United States (KRBL) 40-09N 122-15W 104M
Mar 08, 2021 - 09:54 AM EST / 2021.03.08 1454 UTC
Wind: from the S (170 degrees) at 17 MPH (15 KT):0
Visibility: 10 mile(s):0
Sky conditions: mostly clear
Temperature: 46.0 F (7.8 C)
Dew Point: 39.0 F (3.9 C)
Relative Humidity: 76%
Pressure (altimeter): 30.03 in. Hg (1016 hPa)
Pressure tendency: 0.06 inches (1.9 hPa) higher than three hours ago
ob: KRBL 081454Z AUTO 17015KT 10SM FEW037 08/04 A3003 RMK AO2 SLP167 T00780039 53019
cycle: 15

Station Type Date Time Source
KRBL TAF 2021/03/08 12:30 UTC NOAA

TAF KRBL 081127Z 0812/0912 VRB05KT P6SM BKN070 OVC120
FM081500 16010KT P6SM VCSH OVC035
FM082100 16016G25KT P6SM VCTS SCT015 OVC035CB
TEMPO 0821/0824 3SM +SHRA OVC015
FM090100 16012KT P6SM -SHRA OVC035

Example: see airport list